Time;durP1;ratioP1;P1;durP2;ratioP2;P2;SDS_P1;SDS_P2;PMS_P1;PMS_P2;Temp;Humidity;BMP_temperature;BMP_pressure;BME280_temperature;BME280_humidity;BME280_pressure;Samples;Min_cycle;Max_cycle;Signal;HPM_P1;HPM_P2
2022/01/23 00:01:54;;;;;;;;;34.50;28.25;;;;;;;;5120351;27;13188;-70
2022/01/23 00:04:19;;;;;;;;;40.00;33.00;;;;;;;;5121044;27;13302;-71
2022/01/23 00:06:48;;;;;;;;;28.75;25.50;;;;;;;;5119647;27;14429;-72
2022/01/23 00:09:16;;;;;;;;;36.50;31.25;;;;;;;;5120986;27;14627;-71
2022/01/23 00:11:49;;;;;;;;;35.50;35.00;;;;;;;;5121629;27;13351;-71
2022/01/23 00:19:38;;;;;;;;;43.25;38.00;;;;;;;;5121741;27;12301;-71
2022/01/23 00:22:04;;;;;;;;;40.50;34.25;;;;;;;;5121484;28;14963;-70
2022/01/23 00:32:41;;;;;;;;;44.00;34.00;;;;;;;;5122374;28;12234;-72
2022/01/23 00:35:06;;;;;;;;;34.50;34.25;;;;;;;;5121993;27;12207;-72
2022/01/23 00:37:31;;;;;;;;;38.00;35.75;;;;;;;;5121432;27;13401;-71
2022/01/23 00:39:57;;;;;;;;;35.50;31.50;;;;;;;;5121804;28;10496;-71
2022/01/23 00:42:22;;;;;;;;;40.50;36.00;;;;;;;;5121579;27;11841;-70
2022/01/23 00:44:54;;;;;;;;;43.75;35.50;;;;;;;;5121462;27;13284;-71
2022/01/23 00:47:19;;;;;;;;;32.00;31.50;;;;;;;;5121009;27;11637;-72
2022/01/23 00:49:44;;;;;;;;;38.50;33.00;;;;;;;;5121035;27;12240;-72
2022/01/23 00:52:09;;;;;;;;;35.75;32.50;;;;;;;;5121637;27;11396;-72
2022/01/23 00:54:35;;;;;;;;;37.25;31.75;;;;;;;;5122077;27;12878;-71
2022/01/23 00:57:00;;;;;;;;;41.00;30.50;;;;;;;;5121138;27;11892;-72
2022/01/23 00:59:25;;;;;;;;;46.25;39.50;;;;;;;;5121438;27;14425;-71
2022/01/23 01:01:51;;;;;;;;;39.25;34.50;;;;;;;;5121630;28;10467;-71
2022/01/23 01:04:16;;;;;;;;;50.75;39.50;;;;;;;;5121413;27;11744;-71
2022/01/23 01:06:41;;;;;;;;;41.25;33.00;;;;;;;;5121393;27;11365;-72
2022/01/23 01:09:08;;;;;;;;;33.25;30.50;;;;;;;;5119327;28;16489;-71
2022/01/23 01:14:30;;;;;;;;;32.25;28.50;;;;;;;;5121071;28;11409;-72
2022/01/23 01:30:07;;;;;;;;;31.00;27.25;;;;;;;;5120872;27;12668;-72
2022/01/23 01:36:28;;;;;;;;;41.00;37.50;;;;;;;;5120966;27;13048;-70
2022/01/23 01:38:53;;;;;;;;;33.75;28.75;;;;;;;;5120696;27;10473;-71
2022/01/23 01:41:19;;;;;;;;;36.00;33.00;;;;;;;;5120347;27;14285;-71
2022/01/23 01:43:45;;;;;;;;;37.25;31.00;;;;;;;;5119467;28;12694;-71
2022/01/23 01:46:11;;;;;;;;;35.00;31.00;;;;;;;;5119486;28;10345;-70
2022/01/23 01:48:36;;;;;;;;;29.00;27.50;;;;;;;;5120686;27;8845;-71
2022/01/23 01:51:03;;;;;;;;;39.50;33.50;;;;;;;;5120667;27;13212;-72
2022/01/23 01:53:28;;;;;;;;;39.00;30.25;;;;;;;;5121130;27;12431;-72
2022/01/23 01:55:56;;;;;;;;;39.50;33.50;;;;;;;;5120666;27;10356;-71
2022/01/23 02:09:22;;;;;;;;;44.50;31.50;;;;;;;;5120762;28;8775;-71
2022/01/23 02:57:00;;;;;;;;;34.00;32.75;;;;;;;;5122900;27;13344;-70
2022/01/23 02:59:29;;;;;;;;;38.25;33.25;;;;;;;;5123431;27;11679;-69
2022/01/23 03:04:38;;;;;;;;;35.50;31.50;;;;;;;;5123093;27;13391;-70
2022/01/23 03:07:29;;;;;;;;;35.50;33.00;;;;;;;;5123279;27;10679;-70
2022/01/23 03:15:01;;;;;;;;;32.00;27.00;;;;;;;;5122433;27;14595;-71
2022/01/23 03:28:25;;;;;;;;;38.00;35.50;;;;;;;;5122555;27;13349;-70
2022/01/23 03:31:04;;;;;;;;;45.25;38.25;;;;;;;;5121987;27;13485;-71
2022/01/23 03:33:30;;;;;;;;;34.25;32.50;;;;;;;;5122643;27;13302;-69
2022/01/23 03:35:56;;;;;;;;;37.00;33.50;;;;;;;;5122461;27;13349;-72
2022/01/23 03:38:21;;;;;;;;;36.75;32.75;;;;;;;;5122107;27;10340;-69
2022/01/23 03:40:46;;;;;;;;;38.50;34.25;;;;;;;;5122415;27;11620;-70
2022/01/23 03:43:14;;;;;;;;;37.50;34.00;;;;;;;;5123218;27;11499;-71
2022/01/23 03:50:39;;;;;;;;;34.50;33.00;;;;;;;;5122035;27;10427;-70
2022/01/23 03:53:05;;;;;;;;;34.75;29.00;;;;;;;;5122080;27;12198;-70
2022/01/23 03:55:30;;;;;;;;;30.50;27.75;;;;;;;;5121716;27;12525;-70
2022/01/23 03:57:56;;;;;;;;;27.25;25.50;;;;;;;;5121636;27;11533;-70
2022/01/23 04:00:21;;;;;;;;;22.50;21.25;;;;;;;;5122102;28;13846;-70
2022/01/23 04:02:47;;;;;;;;;23.50;18.00;;;;;;;;5121268;28;12653;-70
2022/01/23 04:05:12;;;;;;;;;12.50;6.75;;;;;;;;5122802;27;12480;-69
2022/01/23 04:07:37;;;;;;;;;28.75;27.50;;;;;;;;5122203;27;22462;-69
2022/01/23 04:10:03;;;;;;;;;24.25;23.00;;;;;;;;5122083;28;22595;-70
2022/01/23 04:15:11;;;;;;;;;26.25;25.00;;;;;;;;5122173;27;13325;-69
2022/01/23 04:20:29;;;;;;;;;33.00;27.00;;;;;;;;5122480;27;10544;-71
2022/01/23 04:34:19;;;;;;;;;28.00;25.50;;;;;;;;5121657;28;14259;-71
2022/01/23 05:01:21;;;;;;;;;24.50;24.25;;;;;;;;5120246;28;11421;-70
2022/01/23 05:04:11;;;;;;;;;26.25;20.25;;;;;;;;5119889;27;12483;-70
2022/01/23 05:06:42;;;;;;;;;24.50;22.50;;;;;;;;5121600;27;10679;-70
2022/01/23 05:09:08;;;;;;;;;23.25;23.00;;;;;;;;5121167;27;11498;-70
2022/01/23 05:11:34;;;;;;;;;24.00;21.00;;;;;;;;5120830;27;11456;-70
2022/01/23 05:14:03;;;;;;;;;25.75;20.00;;;;;;;;5120921;27;10490;-70
2022/01/23 05:16:31;;;;;;;;;21.50;20.00;;;;;;;;5120703;27;10493;-70
2022/01/23 05:18:56;;;;;;;;;23.50;21.00;;;;;;;;5119931;28;11362;-70
2022/01/23 05:24:06;;;;;;;;;22.75;20.50;;;;;;;;5121395;28;13434;-70
2022/01/23 05:26:34;;;;;;;;;23.75;20.75;;;;;;;;5120451;27;12532;-69
2022/01/23 05:29:00;;;;;;;;;32.75;23.00;;;;;;;;5119869;27;11634;-71
2022/01/23 05:31:25;;;;;;;;;25.50;22.00;;;;;;;;5120964;27;14364;-70
2022/01/23 05:33:50;;;;;;;;;26.50;21.00;;;;;;;;5121348;28;12306;-77
2022/01/23 05:36:15;;;;;;;;;25.00;21.50;;;;;;;;5121239;27;9887;-72
2022/01/23 05:38:41;;;;;;;;;24.75;20.00;;;;;;;;5120741;27;11859;-72
2022/01/23 05:41:06;;;;;;;;;20.50;20.50;;;;;;;;5121205;27;11966;-72
2022/01/23 05:43:32;;;;;;;;;22.75;19.00;;;;;;;;5120787;27;11452;-70
2022/01/23 05:45:58;;;;;;;;;20.25;17.00;;;;;;;;5120577;27;12564;-71
2022/01/23 05:48:23;;;;;;;;;22.50;20.75;;;;;;;;5120586;27;9708;-71
2022/01/23 05:50:48;;;;;;;;;24.25;18.25;;;;;;;;5120670;27;12438;-70
2022/01/23 05:53:13;;;;;;;;;24.50;21.00;;;;;;;;5120330;27;11405;-71
2022/01/23 05:55:39;;;;;;;;;23.50;23.00;;;;;;;;5120282;27;12846;-71
2022/01/23 05:58:04;;;;;;;;;21.75;17.75;;;;;;;;5120112;27;8782;-73
2022/01/23 06:00:30;;;;;;;;;22.00;20.00;;;;;;;;5119920;27;12642;-72
2022/01/23 06:02:55;;;;;;;;;18.25;16.50;;;;;;;;5120813;27;12201;-72
2022/01/23 06:05:20;;;;;;;;;19.50;18.50;;;;;;;;5120595;27;13381;-73
2022/01/23 06:07:48;;;;;;;;;18.50;18.50;;;;;;;;5120738;27;11382;-72
2022/01/23 06:10:21;;;;;;;;;20.50;17.50;;;;;;;;5120488;27;8779;-73
2022/01/23 06:12:47;;;;;;;;;17.00;14.00;;;;;;;;5120006;27;12197;-72
2022/01/23 06:15:12;;;;;;;;;16.25;14.75;;;;;;;;5120348;27;13254;-73
2022/01/23 06:17:37;;;;;;;;;35.50;30.75;;;;;;;;5118851;28;14483;-75
2022/01/23 06:20:03;;;;;;;;;32.25;29.00;;;;;;;;5120193;27;12202;-75
2022/01/23 06:22:29;;;;;;;;;34.00;28.25;;;;;;;;5111686;27;12918;-74
2022/01/23 06:24:54;;;;;;;;;32.00;27.25;;;;;;;;5114729;28;11399;-73
2022/01/23 06:27:19;;;;;;;;;25.00;23.25;;;;;;;;5110303;28;9902;-72
2022/01/23 06:29:45;;;;;;;;;28.00;27.75;;;;;;;;5115959;28;10353;-72
2022/01/23 06:32:10;;;;;;;;;31.25;29.00;;;;;;;;5108126;28;10352;-72
2022/01/23 06:34:36;;;;;;;;;38.00;33.25;;;;;;;;5110054;28;13276;-73
2022/01/23 06:37:01;;;;;;;;;33.00;30.00;;;;;;;;5102526;28;12336;-73
2022/01/23 06:39:27;;;;;;;;;32.75;27.50;;;;;;;;5116286;28;11765;-73
2022/01/23 06:41:52;;;;;;;;;29.00;25.75;;;;;;;;5118540;28;12475;-75
2022/01/23 06:44:18;;;;;;;;;37.25;32.75;;;;;;;;5120216;28;13373;-73
2022/01/23 06:46:43;;;;;;;;;36.00;30.00;;;;;;;;5117690;28;12624;-72
2022/01/23 06:49:09;;;;;;;;;39.00;31.75;;;;;;;;5102716;28;11372;-72
2022/01/23 06:51:34;;;;;;;;;31.75;31.75;;;;;;;;5117010;28;11559;-73
2022/01/23 06:54:00;;;;;;;;;34.50;31.75;;;;;;;;5099185;28;10978;-73
2022/01/23 06:56:25;;;;;;;;;33.00;26.50;;;;;;;;5118106;28;8827;-73
2022/01/23 06:58:50;;;;;;;;;35.00;29.25;;;;;;;;5099380;28;12226;-72
2022/01/23 07:01:15;;;;;;;;;42.75;33.75;;;;;;;;5116929;28;11535;-72
2022/01/23 07:03:41;;;;;;;;;31.25;27.75;;;;;;;;5118709;28;12356;-72
2022/01/23 07:06:06;;;;;;;;;29.50;26.25;;;;;;;;5118989;28;12488;-69
2022/01/23 07:08:32;;;;;;;;;34.25;34.25;;;;;;;;5119136;28;12210;-74
2022/01/23 07:10:57;;;;;;;;;36.75;32.25;;;;;;;;5119361;28;13552;-73
2022/01/23 07:13:23;;;;;;;;;32.25;27.75;;;;;;;;5118952;28;9999;-73
2022/01/23 07:15:48;;;;;;;;;39.50;34.00;;;;;;;;5118678;28;11756;-70
2022/01/23 07:18:15;;;;;;;;;32.75;30.75;;;;;;;;5118892;28;12537;-70
2022/01/23 07:20:41;;;;;;;;;39.50;33.50;;;;;;;;5118215;28;11627;-70
2022/01/23 07:23:06;;;;;;;;;39.00;33.00;;;;;;;;5118950;28;11569;-70
2022/01/23 07:25:32;;;;;;;;;40.25;35.75;;;;;;;;5120656;27;8844;-70
2022/01/23 07:27:59;;;;;;;;;34.50;30.25;;;;;;;;5123218;28;13282;-69
2022/01/23 07:32:55;;;;;;;;;42.00;37.00;;;;;;;;5119386;28;11494;-69
2022/01/23 07:35:21;;;;;;;;;42.00;37.25;;;;;;;;5090075;28;10680;-70
2022/01/23 07:37:46;;;;;;;;;46.00;40.50;;;;;;;;5107935;28;8814;-69
2022/01/23 07:40:12;;;;;;;;;38.25;38.25;;;;;;;;5112304;28;12201;-68
2022/01/23 07:42:39;;;;;;;;;41.50;35.50;;;;;;;;5110488;28;13441;-69
2022/01/23 07:45:05;;;;;;;;;38.00;33.67;;;;;;;;5106610;28;14139;-70
2022/01/23 07:47:30;;;;;;;;;45.67;40.00;;;;;;;;5106033;28;14136;-71
2022/01/23 07:49:56;;;;;;;;;43.67;38.00;;;;;;;;5105174;28;13689;-70
2022/01/23 07:52:21;;;;;;;;;44.00;39.33;;;;;;;;5103684;28;9526;-75
2022/01/23 07:54:46;;;;;;;;;43.00;39.00;;;;;;;;5105919;28;11523;-80
2022/01/23 07:57:12;;;;;;;;;44.67;40.33;;;;;;;;5104312;28;11666;-76
2022/01/23 07:59:37;;;;;;;;;46.33;39.67;;;;;;;;5104080;28;12214;-70
2022/01/23 08:02:02;;;;;;;;;46.00;41.00;;;;;;;;5105569;28;12693;-72
2022/01/23 08:04:28;;;;;;;;;54.67;43.00;;;;;;;;5102938;28;12371;-71
2022/01/23 08:07:11;;;;;;;;;50.00;41.33;;;;;;;;5104914;28;12756;-71
2022/01/23 08:09:37;;;;;;;;;48.67;43.33;;;;;;;;5102715;28;11534;-71
2022/01/23 08:12:03;;;;;;;;;45.33;40.00;;;;;;;;5104723;28;12216;-72
2022/01/23 08:14:28;;;;;;;;;40.67;38.67;;;;;;;;5095471;28;11386;-73
2022/01/23 08:16:53;;;;;;;;;52.75;43.50;;;;;;;;5095991;28;12196;-74
2022/01/23 08:19:19;;;;;;;;;42.50;38.00;;;;;;;;5092653;28;14485;-78
2022/01/23 08:21:44;;;;;;;;;44.67;37.33;;;;;;;;5077424;28;15599;-81
2022/01/23 08:24:11;;;;;;;;;45.75;38.50;;;;;;;;5076135;28;11652;-76
2022/01/23 08:26:37;;;;;;;;;42.00;36.50;;;;;;;;5098295;28;11449;-81
2022/01/23 08:29:03;;;;;;;;;36.25;33.00;;;;;;;;5096360;28;11572;-79
2022/01/23 08:31:28;;;;;;;;;41.75;38.50;;;;;;;;5096738;28;13314;-77
2022/01/23 08:33:57;;;;;;;;;46.25;39.75;;;;;;;;5105835;28;14802;-73
2022/01/23 08:36:22;;;;;;;;;39.75;37.75;;;;;;;;5109186;27;13553;-76
2022/01/23 08:38:49;;;;;;;;;42.00;35.75;;;;;;;;5116097;28;11417;-74
2022/01/23 08:43:47;;;;;;;;;39.75;34.25;;;;;;;;5121486;28;10427;-72
2022/01/23 08:46:13;;;;;;;;;41.75;39.00;;;;;;;;5120171;28;12299;-73
2022/01/23 08:48:40;;;;;;;;;44.00;41.00;;;;;;;;5110029;28;14616;-82
2022/01/23 08:51:05;;;;;;;;;49.75;43.00;;;;;;;;5105978;28;11464;-76
2022/01/23 08:53:31;;;;;;;;;47.75;42.00;;;;;;;;5120772;28;11760;-73
2022/01/23 08:55:56;;;;;;;;;69.75;55.25;;;;;;;;5120845;28;8896;-71
2022/01/23 08:58:22;;;;;;;;;48.00;41.50;;;;;;;;5091625;28;16692;-73
2022/01/23 09:00:47;;;;;;;;;48.00;40.50;;;;;;;;5109350;28;13632;-72
2022/01/23 09:03:15;;;;;;;;;42.75;41.00;;;;;;;;5108579;28;8803;-72
2022/01/23 09:05:40;;;;;;;;;51.50;43.50;;;;;;;;5107816;28;11618;-73
2022/01/23 09:08:08;;;;;;;;;52.00;43.75;;;;;;;;5109320;28;13251;-73
2022/01/23 09:10:41;;;;;;;;;38.25;38.25;;;;;;;;5110970;28;11873;-72
2022/01/23 09:13:14;;;;;;;;;49.50;43.00;;;;;;;;5110845;28;12790;-73
2022/01/23 09:15:48;;;;;;;;;65.50;52.50;;;;;;;;5091337;28;13742;-73
2022/01/23 09:18:13;;;;;;;;;101.75;78.75;;;;;;;;5109600;28;13763;-73
2022/01/23 09:20:39;;;;;;;;;46.00;42.00;;;;;;;;5109177;28;23427;-73
2022/01/23 09:23:04;;;;;;;;;51.50;43.00;;;;;;;;5110592;28;23281;-74
2022/01/23 09:25:29;;;;;;;;;58.25;45.00;;;;;;;;5108667;28;12202;-73
2022/01/23 09:27:57;;;;;;;;;59.75;47.00;;;;;;;;5110629;28;11068;-73
2022/01/23 09:30:22;;;;;;;;;55.25;48.25;;;;;;;;5092545;28;10047;-72
2022/01/23 09:32:49;;;;;;;;;59.25;47.00;;;;;;;;5108998;28;11778;-73
2022/01/23 09:35:15;;;;;;;;;56.75;47.25;;;;;;;;5109919;28;11457;-73
2022/01/23 09:37:42;;;;;;;;;57.50;48.25;;;;;;;;5109980;28;11377;-72
2022/01/23 09:40:07;;;;;;;;;63.00;52.25;;;;;;;;5099427;28;10436;-73
2022/01/23 09:42:42;;;;;;;;;62.00;50.75;;;;;;;;5109034;28;12215;-72
2022/01/23 09:45:09;;;;;;;;;58.00;49.00;;;;;;;;5109742;28;11813;-71
2022/01/23 09:47:36;;;;;;;;;50.75;43.25;;;;;;;;5108181;28;13506;-71
2022/01/23 09:50:03;;;;;;;;;63.00;52.25;;;;;;;;5110772;28;11477;-71
2022/01/23 09:52:31;;;;;;;;;58.50;46.75;;;;;;;;5110963;28;12825;-67
2022/01/23 09:54:57;;;;;;;;;57.25;46.00;;;;;;;;5108161;28;12444;-68
2022/01/23 09:57:25;;;;;;;;;51.00;43.75;;;;;;;;5109489;28;11701;-68
2022/01/23 09:59:54;;;;;;;;;61.00;48.75;;;;;;;;5110601;28;11465;-68
2022/01/23 10:02:19;;;;;;;;;53.75;46.00;;;;;;;;5109209;28;9959;-68
2022/01/23 10:04:45;;;;;;;;;57.00;46.75;;;;;;;;5090705;28;13241;-69
2022/01/23 10:07:11;;;;;;;;;52.50;43.50;;;;;;;;5091849;28;11910;-67
2022/01/23 10:09:37;;;;;;;;;50.00;44.25;;;;;;;;5108317;28;11598;-71
2022/01/23 10:12:02;;;;;;;;;59.50;47.25;;;;;;;;5089262;28;13444;-69
2022/01/23 10:14:27;;;;;;;;;60.75;47.50;;;;;;;;5109660;28;10598;-68
2022/01/23 10:16:53;;;;;;;;;60.75;49.00;;;;;;;;5108284;28;13305;-69
2022/01/23 10:19:18;;;;;;;;;54.50;45.75;;;;;;;;5108774;28;10254;-68
2022/01/23 10:21:45;;;;;;;;;45.25;41.75;;;;;;;;5107112;28;13624;-69
2022/01/23 10:24:11;;;;;;;;;52.50;46.25;;;;;;;;5088206;28;12828;-70
2022/01/23 10:26:40;;;;;;;;;62.00;49.50;;;;;;;;5106989;28;13019;-70
2022/01/23 10:29:34;;;;;;;;;72.25;56.50;;;;;;;;5106231;28;13460;-69
2022/01/23 10:32:14;;;;;;;;;76.50;59.50;;;;;;;;5105626;28;12306;-68
2022/01/23 10:34:39;;;;;;;;;72.75;56.25;;;;;;;;5107975;28;10707;-69
2022/01/23 10:37:04;;;;;;;;;72.50;56.00;;;;;;;;5105987;28;11359;-70
2022/01/23 15:02:10;;;;;;;;;59.00;47.00;;;;;;;;5020188;27;3104173;-70
2022/01/23 15:04:54;;;;;;;;;61.00;50.00;;;;;;;;5115114;27;22738;-70
2022/01/23 15:07:19;;;;;;;;;60.00;48.33;;;;;;;;5117399;27;10641;-69
2022/01/23 15:09:46;;;;;;;;;60.67;50.67;;;;;;;;5116954;27;12375;-73
2022/01/23 15:12:13;;;;;;;;;61.00;50.33;;;;;;;;5115366;28;12718;-72
2022/01/23 15:14:38;;;;;;;;;60.67;50.67;;;;;;;;5116384;27;11464;-70
2022/01/23 15:17:03;;;;;;;;;60.67;50.00;;;;;;;;5116136;27;11587;-70
2022/01/23 15:19:29;;;;;;;;;60.67;48.67;;;;;;;;5116305;27;8769;-70
2022/01/23 15:21:55;;;;;;;;;59.67;49.33;;;;;;;;5116267;28;11717;-70
2022/01/23 15:24:20;;;;;;;;;45.33;41.00;;;;;;;;5116884;27;13348;-72
2022/01/23 15:26:45;;;;;;;;;51.67;43.33;;;;;;;;5117197;27;13726;-73
2022/01/23 15:29:12;;;;;;;;;54.00;44.00;;;;;;;;5116649;27;13224;-72
2022/01/23 15:31:38;;;;;;;;;54.67;45.00;;;;;;;;5116561;27;11821;-72
2022/01/23 15:34:04;;;;;;;;;29.00;24.00;;;;;;;;5116849;27;9781;-72
2022/01/23 15:36:29;;;;;;;;;57.00;48.00;;;;;;;;5115896;27;12204;-72
2022/01/23 15:38:54;;;;;;;;;49.67;42.67;;;;;;;;5115898;27;10874;-70
2022/01/23 15:41:20;;;;;;;;;71.33;56.00;;;;;;;;5106053;27;14373;-67
2022/01/23 15:43:45;;;;;;;;;70.33;57.33;;;;;;;;5116658;27;8823;-68
2022/01/23 15:46:11;;;;;;;;;65.00;51.33;;;;;;;;5114890;27;8801;-72
2022/01/23 16:04:40;;;;;;;;;58.00;46.50;;;;;;;;5155302;27;1641463;-76
2022/01/23 16:07:07;;;;;;;;;59.33;49.67;;;;;;;;5199424;27;23021;-74
2022/01/23 16:09:34;;;;;;;;;56.00;44.67;;;;;;;;5197248;27;11660;-74
2022/01/23 16:11:59;;;;;;;;;63.33;50.67;;;;;;;;5200878;27;11444;-79
2022/01/23 16:14:24;;;;;;;;;63.67;50.00;;;;;;;;5200439;27;12593;-79
2022/01/23 16:16:50;;;;;;;;;64.00;51.33;;;;;;;;5200791;27;8903;-80
2022/01/23 16:19:15;;;;;;;;;60.67;48.00;;;;;;;;5200580;27;11549;-79
2022/01/23 16:21:41;;;;;;;;;64.00;53.33;;;;;;;;5180818;27;13880;-79
2022/01/23 16:24:07;;;;;;;;;63.00;51.00;;;;;;;;5199772;27;12526;-79
2022/01/23 16:26:32;;;;;;;;;65.00;51.67;;;;;;;;5198573;27;11723;-78
2022/01/23 16:28:57;;;;;;;;;62.33;52.33;;;;;;;;5199549;27;11591;-77
2022/01/23 16:31:23;;;;;;;;;61.33;51.00;;;;;;;;5180946;27;13373;-83
2022/01/23 16:33:48;;;;;;;;;69.00;57.33;;;;;;;;5199937;27;12445;-82
2022/01/23 16:36:13;;;;;;;;;65.33;51.00;;;;;;;;5198637;27;11758;-76
2022/01/23 16:38:39;;;;;;;;;64.33;54.00;;;;;;;;5196905;27;11884;-75
2022/01/23 16:41:05;;;;;;;;;68.33;55.00;;;;;;;;5198407;27;9644;-74
2022/01/23 16:43:31;;;;;;;;;68.00;54.00;;;;;;;;5197593;27;9016;-80
2022/01/23 16:45:57;;;;;;;;;58.33;49.00;;;;;;;;5197457;27;9779;-77
2022/01/23 16:48:23;;;;;;;;;62.67;52.67;;;;;;;;5178961;27;13155;-79
2022/01/23 16:50:48;;;;;;;;;65.00;54.00;;;;;;;;5166774;27;14631;-85
2022/01/23 16:53:14;;;;;;;;;64.67;52.67;;;;;;;;5135872;27;11919;-77
2022/01/23 16:55:39;;;;;;;;;67.00;53.33;;;;;;;;5135022;27;11599;-78
2022/01/23 16:58:05;;;;;;;;;67.00;56.50;;;;;;;;5132277;27;11716;-76
2022/01/23 17:00:31;;;;;;;;;69.25;54.50;;;;;;;;5134520;27;9544;-78
2022/01/23 17:02:59;;;;;;;;;72.50;56.25;;;;;;;;5134475;27;11234;-77
2022/01/23 17:05:24;;;;;;;;;76.00;61.00;;;;;;;;5135275;27;13634;-75
2022/01/23 17:07:49;;;;;;;;;73.75;59.00;;;;;;;;5134775;27;14155;-74
2022/01/23 17:10:15;;;;;;;;;77.00;61.25;;;;;;;;5134805;27;11599;-73
2022/01/23 17:12:40;;;;;;;;;74.00;59.25;;;;;;;;5134078;27;12853;-77
2022/01/23 17:15:06;;;;;;;;;77.75;58.50;;;;;;;;5126376;27;10067;-73
2022/01/23 17:17:31;;;;;;;;;69.75;57.75;;;;;;;;5120533;27;11593;-73
2022/01/23 17:19:57;;;;;;;;;67.25;54.50;;;;;;;;5121158;27;13735;-77
2022/01/23 17:22:22;;;;;;;;;73.75;57.75;;;;;;;;5121695;27;12090;-77
2022/01/23 17:24:48;;;;;;;;;66.33;54.33;;;;;;;;5117088;27;13482;-75
2022/01/23 17:27:13;;;;;;;;;67.25;54.00;;;;;;;;5121720;28;13100;-79
2022/01/23 17:29:39;;;;;;;;;71.25;58.00;;;;;;;;5121050;27;13269;-72
2022/01/23 17:32:08;;;;;;;;;64.33;53.00;;;;;;;;5120994;27;10991;-71
2022/01/23 17:34:33;;;;;;;;;67.67;54.00;;;;;;;;5121054;28;10070;-71
2022/01/23 17:36:59;;;;;;;;;51.67;43.00;;;;;;;;5121185;27;10605;-71
2022/01/23 17:39:24;;;;;;;;;67.67;54.67;;;;;;;;5120077;27;10819;-71
2022/01/23 17:41:49;;;;;;;;;70.00;56.33;;;;;;;;5120502;28;13638;-72
2022/01/23 17:44:15;;;;;;;;;70.75;57.00;;;;;;;;5120981;27;14011;-73
2022/01/23 17:46:41;;;;;;;;;71.00;56.25;;;;;;;;5119473;28;10972;-71
2022/01/23 17:49:10;;;;;;;;;74.75;56.75;;;;;;;;5121066;27;11842;-71
2022/01/23 17:51:36;;;;;;;;;70.50;57.00;;;;;;;;5117059;28;11158;-71
2022/01/23 17:54:03;;;;;;;;;76.50;60.50;;;;;;;;5119615;27;13070;-71
2022/01/23 17:56:29;;;;;;;;;76.75;59.75;;;;;;;;5119380;27;12701;-71
2022/01/23 17:58:54;;;;;;;;;71.75;56.75;;;;;;;;5118148;28;12966;-72
2022/01/23 18:01:20;;;;;;;;;76.00;59.50;;;;;;;;5116577;27;8901;-72
2022/01/23 18:03:45;;;;;;;;;72.50;57.00;;;;;;;;5119445;27;11586;-72
2022/01/23 18:06:12;;;;;;;;;76.00;61.25;;;;;;;;5119448;28;11736;-74
2022/01/23 18:08:38;;;;;;;;;77.75;63.00;;;;;;;;5119887;27;12841;-75
2022/01/23 18:11:03;;;;;;;;;81.00;64.00;;;;;;;;5120513;27;12110;-74
2022/01/23 18:13:28;;;;;;;;;78.00;61.00;;;;;;;;5121592;27;12970;-72
2022/01/23 18:15:55;;;;;;;;;87.75;66.25;;;;;;;;5121358;27;10809;-73
2022/01/23 18:18:20;;;;;;;;;85.25;67.25;;;;;;;;5120311;27;13615;-75
2022/01/23 18:20:46;;;;;;;;;78.25;62.50;;;;;;;;5121070;27;9699;-71
2022/01/23 18:23:11;;;;;;;;;82.50;62.25;;;;;;;;5120302;27;13552;-74
2022/01/23 18:25:44;;;;;;;;;82.50;66.25;;;;;;;;5119055;27;13676;-72
2022/01/23 18:28:10;;;;;;;;;86.75;67.00;;;;;;;;5117428;27;8799;-75
2022/01/23 18:30:35;;;;;;;;;82.00;64.50;;;;;;;;5116951;28;11596;-72
2022/01/23 18:33:00;;;;;;;;;86.25;69.00;;;;;;;;5119516;27;11636;-70
2022/01/23 18:35:27;;;;;;;;;79.50;61.50;;;;;;;;5117360;28;12115;-70
2022/01/23 18:37:52;;;;;;;;;74.25;61.50;;;;;;;;5117159;28;15221;-69
2022/01/23 18:40:18;;;;;;;;;87.00;66.75;;;;;;;;5119107;27;10087;-70
2022/01/23 18:42:44;;;;;;;;;77.75;63.00;;;;;;;;5118998;27;14175;-70
2022/01/23 18:45:10;;;;;;;;;73.50;59.75;;;;;;;;5116836;27;13962;-69
2022/01/23 18:47:35;;;;;;;;;84.00;66.00;;;;;;;;5120253;27;13799;-71
2022/01/23 18:50:01;;;;;;;;;86.00;65.75;;;;;;;;5120378;28;13497;-70
2022/01/23 18:52:27;;;;;;;;;71.25;59.00;;;;;;;;5120250;27;11957;-70
2022/01/23 18:55:01;;;;;;;;;84.25;62.50;;;;;;;;5118020;28;15899;-72
2022/01/23 18:57:56;;;;;;;;;76.25;62.00;;;;;;;;5120506;27;13572;-68
2022/01/23 19:00:12;;;;;;;;;86.00;67.00;;;;;;;;5118243;28;14233;-70
2022/01/23 19:02:58;;;;;;;;;80.75;64.00;;;;;;;;5116688;28;13165;-69
2022/01/23 19:05:30;;;;;;;;;73.75;60.50;;;;;;;;5119004;27;10673;-66
2022/01/23 19:10:40;;;;;;;;;68.25;56.00;;;;;;;;5119199;27;13607;-71
2022/01/23 19:13:10;;;;;;;;;67.25;55.75;;;;;;;;5120367;28;13732;-71
2022/01/23 19:15:36;;;;;;;;;73.00;59.25;;;;;;;;5103899;22;11838;-79
2022/01/23 19:18:02;;;;;;;;;79.75;62.25;;;;;;;;5080065;28;12466;-82
2022/01/23 19:20:27;;;;;;;;;81.75;61.75;;;;;;;;5079297;28;11628;-69
2022/01/23 19:22:53;;;;;;;;;74.25;61.00;;;;;;;;5079629;28;12958;-67
2022/01/23 19:25:19;;;;;;;;;85.50;64.75;;;;;;;;5074677;28;15247;-66
2022/01/23 19:27:48;;;;;;;;;71.50;56.00;;;;;;;;5066909;28;13591;-68
2022/01/23 19:30:18;;;;;;;;;79.25;62.75;;;;;;;;5068268;28;13966;-69
2022/01/23 19:32:44;;;;;;;;;70.25;57.25;;;;;;;;5069840;28;12887;-68
2022/01/23 19:35:09;;;;;;;;;76.75;60.00;;;;;;;;5078316;28;11826;-69
2022/01/23 19:37:35;;;;;;;;;80.75;63.75;;;;;;;;5073261;28;14257;-68
2022/01/23 19:40:00;;;;;;;;;86.25;66.50;;;;;;;;5067059;28;14540;-69
2022/01/23 19:44:58;;;;;;;;;88.50;68.25;;;;;;;;5067327;28;9587;-66
2022/01/23 19:47:50;;;;;;;;;92.25;69.00;;;;;;;;5066928;28;13875;-66
2022/01/23 19:50:09;;;;;;;;;78.25;63.75;;;;;;;;5065522;28;15157;-69
2022/01/23 19:52:35;;;;;;;;;90.25;69.75;;;;;;;;5068148;28;13961;-67
2022/01/23 19:55:01;;;;;;;;;83.00;65.25;;;;;;;;5065294;28;10858;-67
2022/01/23 19:57:26;;;;;;;;;87.00;68.75;;;;;;;;5068060;28;12433;-67
2022/01/23 19:59:52;;;;;;;;;82.50;65.00;;;;;;;;5067340;28;11069;-66
2022/01/23 20:02:17;;;;;;;;;86.75;69.00;;;;;;;;5067881;28;11856;-69
2022/01/23 20:04:43;;;;;;;;;81.25;63.50;;;;;;;;5069513;28;10797;-66
2022/01/23 20:07:08;;;;;;;;;78.50;59.50;;;;;;;;5071725;28;12759;-69
2022/01/23 20:09:42;;;;;;;;;79.75;63.25;;;;;;;;5066982;28;12688;-68
2022/01/23 20:14:52;;;;;;;;;78.50;62.25;;;;;;;;5071376;28;13523;-67
2022/01/23 20:17:17;;;;;;;;;74.75;59.00;;;;;;;;5069178;28;14038;-69
2022/01/23 20:19:43;;;;;;;;;81.50;65.75;;;;;;;;5065931;28;13928;-67
2022/01/23 20:22:08;;;;;;;;;75.25;61.00;;;;;;;;5066632;28;14329;-67
2022/01/23 20:24:34;;;;;;;;;73.25;62.00;;;;;;;;5067340;28;14035;-67
2022/01/23 20:27:01;;;;;;;;;72.25;56.25;;;;;;;;5077574;28;8895;-70
2022/01/23 20:29:27;;;;;;;;;75.75;62.25;;;;;;;;5078685;28;12839;-68
2022/01/23 20:31:53;;;;;;;;;73.25;59.25;;;;;;;;5069927;28;10596;-69
2022/01/23 20:34:18;;;;;;;;;78.00;60.75;;;;;;;;5068089;28;10853;-68
2022/01/23 20:36:44;;;;;;;;;70.25;58.50;;;;;;;;5066725;28;11828;-67
2022/01/23 20:39:09;;;;;;;;;76.75;59.25;;;;;;;;5068966;28;13761;-68
2022/01/23 20:41:34;;;;;;;;;69.75;57.50;;;;;;;;5068252;28;11474;-69
2022/01/23 20:44:00;;;;;;;;;76.25;63.00;;;;;;;;5067743;28;14621;-68
2022/01/23 20:46:26;;;;;;;;;67.50;56.25;;;;;;;;5068667;28;13941;-67
2022/01/23 20:48:51;;;;;;;;;69.75;57.00;;;;;;;;5067260;28;13514;-68
2022/01/23 20:51:24;;;;;;;;;70.25;55.75;;;;;;;;5070819;28;11762;-70
2022/01/23 20:53:49;;;;;;;;;68.00;53.75;;;;;;;;5071285;28;15919;-69
2022/01/23 20:56:17;;;;;;;;;69.25;55.75;;;;;;;;5071040;28;12611;-68
2022/01/23 20:58:42;;;;;;;;;75.25;58.00;;;;;;;;5070854;28;10651;-69
2022/01/23 21:01:13;;;;;;;;;75.00;59.75;;;;;;;;5071666;28;13540;-70
2022/01/23 21:03:41;;;;;;;;;74.75;60.00;;;;;;;;5069643;28;11061;-68
2022/01/23 21:06:07;;;;;;;;;68.25;56.00;;;;;;;;5074813;28;13170;-68
2022/01/23 21:08:32;;;;;;;;;78.50;63.50;;;;;;;;5071073;28;11614;-68
2022/01/23 21:10:57;;;;;;;;;80.00;63.00;;;;;;;;5069856;28;14114;-69
2022/01/23 21:13:26;;;;;;;;;84.50;64.50;;;;;;;;5071024;28;15217;-68
2022/01/23 21:19:00;;;;;;;;;78.50;64.50;;;;;;;;5071667;28;11649;-68
2022/01/23 21:21:35;;;;;;;;;72.75;58.25;;;;;;;;5069665;28;13750;-68
2022/01/23 21:40:32;;;;;;;;;80.25;61.50;;;;;;;;5060688;28;13440;-69
2022/01/23 21:42:57;;;;;;;;;79.00;63.50;;;;;;;;5063079;28;13538;-67
2022/01/23 21:45:23;;;;;;;;;70.25;56.75;;;;;;;;5070182;28;12702;-68
2022/01/23 21:47:50;;;;;;;;;74.75;57.50;;;;;;;;5067429;28;13637;-68
2022/01/23 21:50:16;;;;;;;;;75.00;60.00;;;;;;;;5071082;28;11967;-67
2022/01/23 21:52:41;;;;;;;;;76.75;61.50;;;;;;;;5069724;28;12499;-70
2022/01/23 21:55:06;;;;;;;;;77.75;63.00;;;;;;;;5071763;28;12215;-67
2022/01/23 21:57:32;;;;;;;;;75.00;60.75;;;;;;;;5069240;28;11568;-67
2022/01/23 21:59:57;;;;;;;;;70.75;53.75;;;;;;;;5069591;28;12028;-68
2022/01/23 22:02:22;;;;;;;;;76.25;60.75;;;;;;;;5071402;28;12045;-66
2022/01/23 22:04:47;;;;;;;;;78.00;62.50;;;;;;;;5077380;28;10564;-67